Time;durP1;ratioP1;P1;durP2;ratioP2;P2;SDS_P1;SDS_P2;PMS_P1;PMS_P2;Temp;Humidity;BMP_temperature;BMP_pressure;BME280_temperature;BME280_humidity;BME280_pressure;Samples;Min_cycle;Max_cycle;Signal;HPM_P1;HPM_P2
2022/04/28 00:01:00;;;;;;;7.53;3.17;;;7.30;99.90;;;;;;4994381;28;20041;-81
2022/04/28 00:03:43;;;;;;;9.82;3.47;;;7.20;99.90;;;;;;5024722;28;20049;-82
2022/04/28 00:06:14;;;;;;;12.10;3.70;;;7.20;99.90;;;;;;4995310;28;20048;-86
2022/04/28 00:08:42;;;;;;;11.85;5.10;;;7.10;99.90;;;;;;4981456;28;20041;-86
2022/04/28 00:11:11;;;;;;;12.10;3.83;;;7.10;99.90;;;;;;5011092;28;20054;-88
2022/04/28 00:13:42;;;;;;;10.52;3.42;;;7.10;99.90;;;;;;4995234;28;20053;-87
2022/04/28 00:16:19;;;;;;;14.50;4.00;;;7.10;99.90;;;;;;4995826;28;20403;-87
2022/04/28 00:19:13;;;;;;;10.23;3.35;;;7.00;99.90;;;;;;4980494;28;20044;-87
2022/04/28 00:21:41;;;;;;;10.93;3.10;;;7.00;99.90;;;;;;4992724;28;20045;-88
2022/04/28 00:24:14;;;;;;;7.53;3.50;;;7.00;99.90;;;;;;4973924;28;20048;-88
2022/04/28 00:26:42;;;;;;;8.10;3.47;;;7.00;99.90;;;;;;5025894;28;20044;-88
2022/04/28 00:29:22;;;;;;;7.25;3.25;;;6.90;99.90;;;;;;4998268;28;20072;-89
2022/04/28 00:31:53;;;;;;;12.85;4.07;;;6.90;99.90;;;;;;5029557;28;20050;-87
2022/04/28 00:34:21;;;;;;;9.98;3.63;;;6.90;99.90;;;;;;5013000;28;20029;-83
2022/04/28 00:37:05;;;;;;;12.43;5.83;;;6.90;99.90;;;;;;5013770;28;20034;-85
2022/04/28 00:39:41;;;;;;;27.52;13.13;;;6.90;99.90;;;;;;5029053;28;20132;-84
2022/04/28 00:42:32;;;;;;;18.80;10.13;;;6.90;99.90;;;;;;5000437;28;20060;-85
2022/04/28 00:45:03;;;;;;;79.18;51.10;;;6.80;99.90;;;;;;5028186;28;20059;-86
2022/04/28 00:50:44;;;;;;;14.15;5.97;;;6.80;99.90;;;;;;5026790;28;20040;-89
2022/04/28 00:53:17;;;;;;;12.55;4.75;;;6.80;99.90;;;;;;5013413;28;20033;-88
2022/04/28 00:55:51;;;;;;;10.70;4.88;;;6.80;99.90;;;;;;5015675;28;20044;-88
2022/04/28 00:58:20;;;;;;;12.53;4.60;;;6.70;99.90;;;;;;5013614;28;20052;-87
2022/04/28 01:00:55;;;;;;;14.33;4.67;;;6.70;99.90;;;;;;5019018;28;20041;-88
2022/04/28 01:03:30;;;;;;;11.07;4.30;;;6.70;99.90;;;;;;5025321;28;20052;-88
2022/04/28 01:06:08;;;;;;;12.32;4.78;;;6.70;99.90;;;;;;5034546;28;20044;-88
2022/04/28 01:08:36;;;;;;;10.77;4.00;;;6.60;99.90;;;;;;5024754;28;20060;-87
2022/04/28 01:11:22;;;;;;;10.18;3.53;;;6.60;99.90;;;;;;5006318;28;20477;-80
2022/04/28 01:14:26;;;;;;;12.48;5.65;;;6.60;99.90;;;;;;5034572;28;20044;-81
2022/04/28 01:17:09;;;;;;;14.25;5.57;;;6.60;99.90;;;;;;5010027;28;20448;-81
2022/04/28 01:19:36;;;;;;;14.38;4.78;;;6.50;99.90;;;;;;5013523;28;20044;-81
2022/04/28 01:22:08;;;;;;;13.32;4.57;;;6.50;99.90;;;;;;5012851;28;20048;-80
2022/04/28 01:24:36;;;;;;;9.15;3.85;;;6.50;99.90;;;;;;5027130;28;20049;-80
2022/04/28 01:27:05;;;;;;;16.95;5.88;;;6.50;99.90;;;;;;4973885;28;20045;-81
2022/04/28 01:29:35;;;;;;;12.48;5.03;;;6.50;99.90;;;;;;5039675;28;20033;-80
2022/04/28 01:32:08;;;;;;;9.05;4.57;;;6.40;99.90;;;;;;5012330;28;20389;-81
2022/04/28 01:34:39;;;;;;;9.77;4.53;;;6.40;99.90;;;;;;5017107;28;20048;-82
2022/04/28 01:37:09;;;;;;;9.95;5.50;;;6.40;99.90;;;;;;5013065;28;20502;-88
2022/04/28 01:39:36;;;;;;;9.00;3.88;;;6.40;99.90;;;;;;4994153;28;20030;-88
2022/04/28 01:42:02;;;;;;;17.08;6.00;;;6.40;99.90;;;;;;4979197;28;20029;-87
2022/04/28 01:44:32;;;;;;;15.93;6.03;;;6.30;99.90;;;;;;5011458;28;20396;-88
2022/04/28 01:47:02;;;;;;;9.95;4.43;;;6.30;99.90;;;;;;5011461;28;20046;-88
2022/04/28 01:49:33;;;;;;;13.27;5.57;;;6.30;99.90;;;;;;5005123;28;20041;-88
2022/04/28 01:55:26;;;;;;;9.82;4.55;;;6.20;99.90;;;;;;5003861;28;20048;-88
2022/04/28 01:57:56;;;;;;;14.88;5.35;;;6.20;99.90;;;;;;4994611;28;20025;-88
2022/04/28 02:00:50;;;;;;;;;;;6.20;99.90;;;;;;5011534;28;20048;-88
2022/04/28 02:03:18;;;;;;;13.65;6.03;;;6.20;99.90;;;;;;5006045;28;19910;-89
2022/04/28 02:05:45;;;;;;;9.38;4.45;;;6.20;99.90;;;;;;5014224;28;20037;-88
2022/04/28 02:08:12;;;;;;;9.80;5.07;;;6.10;99.90;;;;;;4995616;28;20048;-88
2022/04/28 02:10:42;;;;;;;12.33;5.30;;;6.10;99.90;;;;;;5007626;28;20029;-87
2022/04/28 02:13:25;;;;;;;12.17;6.13;;;6.10;99.90;;;;;;4976112;28;20412;-88
2022/04/28 02:16:14;;;;;;;11.83;5.37;;;6.00;99.90;;;;;;5001839;28;20030;-87
2022/04/28 02:19:00;;;;;;;12.70;5.28;;;6.00;99.90;;;;;;5031674;28;20495;-87
2022/04/28 02:21:55;;;;;;;16.77;5.78;;;6.00;99.90;;;;;;4995472;28;20037;-88
2022/04/28 02:24:53;;;;;;;10.97;5.07;;;5.90;99.90;;;;;;5047460;28;20037;-87
2022/04/28 02:27:24;;;;;;;13.03;5.60;;;5.90;99.90;;;;;;5050089;28;20051;-88
2022/04/28 02:30:20;;;;;;;14.50;6.15;;;5.80;99.90;;;;;;5019886;28;20040;-87
2022/04/28 02:35:44;;;;;;;10.18;5.03;;;5.90;99.90;;;;;;5038956;28;20040;-88
2022/04/28 02:38:15;;;;;;;17.08;5.05;;;5.80;99.90;;;;;;5036107;28;20028;-88
2022/04/28 02:40:47;;;;;;;6.93;4.07;;;5.80;99.90;;;;;;5037010;28;20475;-88
2022/04/28 02:43:18;;;;;;;7.78;3.67;;;5.80;99.90;;;;;;5004436;28;20063;-87
2022/04/28 02:45:53;;;;;;;10.00;3.60;;;5.80;99.90;;;;;;5021710;28;20040;-88
2022/04/28 02:48:26;;;;;;;7.32;3.60;;;5.80;99.90;;;;;;5016314;28;20048;-81
2022/04/28 02:50:57;;;;;;;11.43;4.00;;;5.80;99.90;;;;;;5053606;28;20048;-81
2022/04/28 02:53:27;;;;;;;8.27;4.37;;;5.80;99.90;;;;;;5046556;28;20048;-81
2022/04/28 02:56:04;;;;;;;10.38;4.68;;;5.80;99.90;;;;;;5022051;28;20393;-81
2022/04/28 02:58:54;;;;;;;10.10;4.40;;;5.70;99.90;;;;;;5029527;28;20393;-81
2022/04/28 03:01:59;;;;;;;10.03;4.43;;;5.70;99.90;;;;;;5064364;28;20424;-82
2022/04/28 03:04:29;;;;;;;10.87;4.70;;;5.70;99.90;;;;;;5053866;28;20087;-82
2022/04/28 03:12:36;;;;;;;8.20;3.47;;;5.70;99.90;;;;;;5022669;28;20037;-82
2022/04/28 03:15:25;;;;;;;7.80;4.43;;;5.60;99.90;;;;;;5045086;28;20033;-81
2022/04/28 03:17:59;;;;;;;15.53;5.50;;;5.70;99.90;;;;;;5054882;28;20044;-81
2022/04/28 03:20:26;;;;;;;12.57;4.40;;;5.70;99.90;;;;;;5017825;28;20047;-82
2022/04/28 03:22:56;;;;;;;12.00;4.57;;;5.60;99.90;;;;;;5048840;28;20037;-81
2022/04/28 03:25:26;;;;;;;15.00;4.67;;;5.70;99.90;;;;;;5052081;28;20403;-81
2022/04/28 03:27:56;;;;;;;14.23;5.93;;;5.60;99.90;;;;;;5032404;28;20416;-81
2022/04/28 03:30:26;;;;;;;10.10;5.63;;;5.60;99.90;;;;;;5047544;28;20040;-81
2022/04/28 03:33:07;;;;;;;15.53;5.60;;;5.60;99.90;;;;;;5014513;28;20057;-81
2022/04/28 03:35:36;;;;;;;10.27;4.60;;;5.60;99.90;;;;;;5011235;28;20026;-81
2022/04/28 03:38:03;;;;;;;10.67;4.97;;;5.60;99.90;;;;;;5015891;28;20534;-81
2022/04/28 03:40:32;;;;;;;11.10;4.80;;;5.60;99.90;;;;;;5029650;28;20033;-81
2022/04/28 03:43:01;;;;;;;14.07;4.93;;;5.60;99.90;;;;;;4998574;28;20052;-81
2022/04/28 03:45:28;;;;;;;14.20;5.23;;;5.60;99.90;;;;;;5015897;28;20060;-81
2022/04/28 03:48:01;;;;;;;11.57;5.17;;;5.60;99.90;;;;;;5009361;28;20033;-82
2022/04/28 03:50:31;;;;;;;10.25;3.75;;;5.60;99.90;;;;;;4997016;28;20040;-83
2022/04/28 03:52:59;;;;;;;6.87;3.70;;;5.60;99.90;;;;;;5030108;28;20041;-82
2022/04/28 03:55:27;;;;;;;8.30;3.40;;;5.60;99.90;;;;;;5027043;28;20082;-82
2022/04/28 03:57:57;;;;;;;13.87;4.87;;;5.60;99.90;;;;;;4995903;28;20037;-82
2022/04/28 04:00:26;;;;;;;11.73;3.97;;;5.60;99.90;;;;;;5026390;28;20029;-82
2022/04/28 04:03:02;;;;;;;11.73;4.30;;;5.60;99.90;;;;;;5014057;28;20037;-82
2022/04/28 04:05:28;;;;;;;14.20;4.40;;;5.60;99.90;;;;;;5002129;28;20070;-82
2022/04/28 04:07:57;;;;;;;11.90;3.87;;;5.60;99.90;;;;;;4981558;28;20040;-82
2022/04/28 04:10:35;;;;;;;11.67;4.27;;;5.50;99.90;;;;;;5006973;28;20028;-81
2022/04/28 04:13:04;;;;;;;17.17;4.63;;;5.50;99.90;;;;;;5013889;28;20033;-81
2022/04/28 04:15:32;;;;;;;10.43;4.30;;;5.50;99.90;;;;;;5030043;28;20033;-82
2022/04/28 04:18:20;;;;;;;9.90;3.83;;;5.50;99.90;;;;;;5032428;28;20376;-82
2022/04/28 04:21:34;;;;;;;10.57;4.60;;;5.50;99.90;;;;;;5028957;28;20025;-88
2022/04/28 04:24:41;;;;;;;6.40;3.28;;;5.50;99.90;;;;;;5039139;28;20056;-82
2022/04/28 04:27:27;;;;;;;13.77;4.13;;;5.50;99.90;;;;;;5017589;28;20052;-82
2022/04/28 04:34:09;;;;;;;9.20;3.30;;;5.50;99.90;;;;;;5054689;28;20047;-82
2022/04/28 04:40:17;;;;;;;;;;;;;;;;;;;;;
2022/04/28 04:43:02;;;;;;;18.13;6.90;;;5.60;99.90;;;;;;4971839;28;20049;-80
2022/04/28 04:45:42;;;;;;;17.60;5.13;;;5.60;99.90;;;;;;4989788;28;20045;-86
2022/04/28 04:49:07;;;;;;;10.43;4.77;;;5.60;99.90;;;;;;4982365;28;21263;-81
2022/04/28 04:51:57;;;;;;;11.52;4.78;;;5.70;99.90;;;;;;4987498;28;21154;-87
2022/04/28 04:54:29;;;;;;;18.27;5.60;;;5.80;99.90;;;;;;4972616;28;20493;-88
2022/04/28 04:57:04;;;;;;;16.07;4.43;;;5.80;99.90;;;;;;4973846;28;20047;-88
2022/04/28 04:59:36;;;;;;;10.30;4.63;;;5.90;99.90;;;;;;4953762;28;20069;-87
2022/04/28 05:02:18;;;;;;;15.73;6.00;;;6.00;99.90;;;;;;4951327;28;20367;-87
2022/04/28 05:05:05;;;;;;;8.07;3.65;;;6.20;99.90;;;;;;4967895;28;20383;-80
2022/04/28 05:08:19;;;;;;;13.98;3.97;;;6.30;99.90;;;;;;4983574;28;20038;-88
2022/04/28 05:11:14;;;;;;;8.63;3.97;;;6.40;99.90;;;;;;4985878;28;20043;-89
2022/04/28 05:14:15;;;;;;;14.97;4.33;;;6.40;99.90;;;;;;4977832;28;20046;-89
2022/04/28 05:16:49;;;;;;;10.82;4.15;;;6.50;99.90;;;;;;4979031;28;20037;-81
2022/04/28 05:19:27;;;;;;;10.43;3.42;;;6.50;99.90;;;;;;4984154;28;20044;-88
2022/04/28 05:22:27;;;;;;;11.82;3.97;;;6.50;99.90;;;;;;4993298;28;20062;-88
2022/04/28 05:25:17;;;;;;;12.70;4.35;;;6.50;99.90;;;;;;4978228;28;20038;-87
2022/04/28 05:28:07;;;;;;;10.75;4.38;;;6.50;99.90;;;;;;4979688;28;20643;-78
2022/04/28 05:30:55;;;;;;;5.27;2.47;;;6.60;99.90;;;;;;4993635;28;20069;-81
2022/04/28 05:33:50;;;;;;;8.10;3.33;;;6.70;99.90;;;;;;4963882;28;21430;-84
2022/04/28 05:36:45;;;;;;;9.38;3.35;;;6.80;99.90;;;;;;4995692;28;20292;-79
2022/04/28 05:39:19;;;;;;;11.77;4.10;;;6.90;99.90;;;;;;4951018;28;20038;-80
2022/04/28 05:41:47;;;;;;;10.38;3.42;;;7.10;99.90;;;;;;4965039;28;20393;-80
2022/04/28 05:47:03;;;;;;;12.27;3.63;;;7.30;99.90;;;;;;5000889;28;20038;-81
2022/04/28 05:49:31;;;;;;;11.93;3.63;;;7.50;99.90;;;;;;5017240;28;20049;-80
2022/04/28 05:52:02;;;;;;;10.20;3.45;;;7.80;99.90;;;;;;4990677;28;20042;-80
2022/04/28 05:54:40;;;;;;;8.07;2.47;;;7.90;99.90;;;;;;4976899;28;20033;-85
2022/04/28 05:57:08;;;;;;;21.50;9.55;;;8.10;99.90;;;;;;5006684;28;20048;-84
2022/04/28 05:59:55;;;;;;;11.80;4.30;;;8.30;99.90;;;;;;5018497;28;20045;-83
2022/04/28 06:02:47;;;;;;;7.80;3.70;;;8.50;99.90;;;;;;5035715;28;20029;-84
2022/04/28 06:05:26;;;;;;;14.77;6.75;;;8.70;99.90;;;;;;5025160;28;20037;-84
2022/04/28 06:07:54;;;;;;;10.85;3.70;;;8.90;99.90;;;;;;5006134;28;20385;-82
2022/04/28 06:10:26;;;;;;;13.95;4.50;;;9.00;99.90;;;;;;5003682;28;20036;-84
2022/04/28 06:12:57;;;;;;;10.88;3.15;;;9.10;99.90;;;;;;5017833;28;20038;-84
2022/04/28 06:15:27;;;;;;;10.43;2.80;;;9.20;99.90;;;;;;5023619;28;20032;-84
2022/04/28 06:18:15;;;;;;;9.23;3.08;;;9.20;99.90;;;;;;5026345;28;20056;-83
2022/04/28 06:20:42;;;;;;;12.82;4.15;;;9.40;99.90;;;;;;5005440;28;20044;-84
2022/04/28 06:23:22;;;;;;;7.80;2.50;;;9.60;99.90;;;;;;5008892;28;20048;-84
2022/04/28 06:25:50;;;;;;;10.00;2.85;;;9.70;99.90;;;;;;4988465;28;20052;-84
2022/04/28 06:28:18;;;;;;;6.82;2.03;;;9.80;99.90;;;;;;5026466;28;20045;-84
2022/04/28 06:30:52;;;;;;;14.43;2.72;;;9.90;99.90;;;;;;5017839;28;20040;-84
2022/04/28 06:33:40;;;;;;;8.88;2.05;;;10.00;99.90;;;;;;5009715;28;20041;-83
2022/04/28 06:36:14;;;;;;;6.32;1.60;;;10.20;99.90;;;;;;5006612;28;20041;-83
2022/04/28 06:38:43;;;;;;;7.88;1.90;;;10.40;99.90;;;;;;5006598;28;20042;-83
2022/04/28 06:41:12;;;;;;;7.38;1.73;;;10.70;99.90;;;;;;4971209;28;20034;-83
2022/04/28 06:43:42;;;;;;;6.85;1.60;;;11.00;99.90;;;;;;4987858;28;20552;-83
2022/04/28 06:46:38;;;;;;;8.35;1.92;;;11.30;99.30;;;;;;5022162;28;20481;-84
2022/04/28 06:49:05;;;;;;;8.05;1.83;;;11.40;98.90;;;;;;5019883;28;20021;-84
2022/04/28 06:52:03;;;;;;;9.60;1.95;;;11.40;98.30;;;;;;5010330;28;20037;-84
2022/04/28 06:54:52;;;;;;;8.27;1.60;;;11.40;98.20;;;;;;4995765;28;20049;-84
2022/04/28 06:57:23;;;;;;;15.40;2.08;;;11.40;98.20;;;;;;4977017;28;20476;-84
2022/04/28 06:59:50;;;;;;;7.72;1.50;;;11.60;98.20;;;;;;4973879;28;20392;-84
2022/04/28 07:02:20;;;;;;;9.32;2.08;;;11.80;97.40;;;;;;5021830;28;20021;-85
2022/04/28 07:04:49;;;;;;;6.80;1.33;;;12.00;97.10;;;;;;4999338;28;20033;-85
2022/04/28 07:07:20;;;;;;;8.10;2.10;;;12.10;96.70;;;;;;4958148;28;20054;-83
2022/04/28 07:09:49;;;;;;;10.68;1.95;;;12.30;96.50;;;;;;4991369;28;20034;-84
2022/04/28 07:12:15;;;;;;;6.68;1.20;;;12.40;95.90;;;;;;5023473;28;20025;-83
2022/04/28 07:14:58;;;;;;;8.95;1.63;;;12.40;95.90;;;;;;5039324;28;20389;-82
2022/04/28 07:17:43;;;;;;;8.57;1.40;;;12.40;95.20;;;;;;5009683;28;20030;-83
2022/04/28 07:20:24;;;;;;;10.23;1.58;;;12.40;95.30;;;;;;4988660;28;20037;-83
2022/04/28 07:23:00;;;;;;;7.10;1.85;;;12.50;95.10;;;;;;5020695;28;20052;-78
2022/04/28 07:25:36;;;;;;;10.43;1.98;;;12.50;94.90;;;;;;5024156;28;20033;-84
2022/04/28 07:28:10;;;;;;;7.65;1.77;;;12.50;94.50;;;;;;4997122;28;20049;-80
2022/04/28 07:30:57;;;;;;;7.32;1.45;;;12.60;94.00;;;;;;5010395;28;20042;-81
2022/04/28 07:33:43;;;;;;;6.93;1.60;;;12.60;93.70;;;;;;5038987;28;20037;-81
2022/04/28 07:36:27;;;;;;;8.15;1.98;;;12.60;93.30;;;;;;5029161;28;20042;-82
2022/04/28 07:39:20;;;;;;;9.25;1.80;;;12.60;93.30;;;;;;5038169;28;20401;-80
2022/04/28 07:42:09;;;;;;;12.48;3.42;;;12.70;92.70;;;;;;5006348;28;20040;-83
2022/04/28 07:44:40;;;;;;;12.48;2.70;;;12.70;92.80;;;;;;5012978;28;20077;-81
2022/04/28 07:47:09;;;;;;;11.40;2.17;;;12.80;92.60;;;;;;5027513;28;20041;-77
2022/04/28 07:49:43;;;;;;;9.27;2.35;;;12.80;92.30;;;;;;5026173;28;21136;-82
2022/04/28 07:52:15;;;;;;;7.47;1.88;;;12.80;92.10;;;;;;4997434;28;20036;-81
2022/04/28 07:54:50;;;;;;;5.90;1.30;;;12.80;92.20;;;;;;5021565;28;20397;-83
2022/04/28 07:57:29;;;;;;;9.05;2.28;;;13.00;92.10;;;;;;5011720;28;20029;-82
2022/04/28 07:59:59;;;;;;;9.25;1.92;;;13.10;92.00;;;;;;5010336;28;20547;-82
2022/04/28 08:02:27;;;;;;;8.38;1.77;;;13.20;91.80;;;;;;5027184;28;20036;-82
2022/04/28 08:04:54;;;;;;;10.32;1.58;;;13.30;91.70;;;;;;4998636;28;20049;-83
2022/04/28 08:07:26;;;;;;;9.27;1.80;;;13.40;91.70;;;;;;5014683;28;20050;-82
2022/04/28 08:09:56;;;;;;;7.45;2.05;;;13.50;91.50;;;;;;5034320;28;20053;-82
2022/04/28 08:12:34;;;;;;;9.00;2.17;;;13.60;91.10;;;;;;5032397;28;20052;-82
2022/04/28 08:15:13;;;;;;;5.20;1.23;;;13.60;91.00;;;;;;4997759;28;20045;-82
2022/04/28 08:17:48;;;;;;;10.82;2.50;;;13.70;91.10;;;;;;5023813;28;20041;-83
2022/04/28 08:20:15;;;;;;;6.03;1.55;;;13.80;90.80;;;;;;5046257;28;20030;-82
2022/04/28 08:22:43;;;;;;;8.80;2.00;;;14.00;90.70;;;;;;5031107;28;20033;-81
2022/04/28 08:25:11;;;;;;;6.43;1.38;;;14.10;90.50;;;;;;4967734;28;20500;-80
2022/04/28 08:27:38;;;;;;;8.57;1.30;;;14.30;90.20;;;;;;5018370;28;20057;-81
2022/04/28 08:30:06;;;;;;;5.75;1.02;;;14.30;89.70;;;;;;5006110;28;20029;-81
2022/04/28 08:32:34;;;;;;;11.73;1.60;;;14.30;89.00;;;;;;5011998;28;20469;-81
2022/04/28 08:35:00;;;;;;;6.80;1.50;;;14.40;88.50;;;;;;5008776;28;20041;-82
2022/04/28 08:37:27;;;;;;;5.10;1.40;;;14.50;88.20;;;;;;5005627;28;20389;-82
2022/04/28 08:39:55;;;;;;;4.75;1.10;;;14.50;87.40;;;;;;4978857;28;20049;-82
2022/04/28 08:42:22;;;;;;;8.30;1.48;;;14.60;88.20;;;;;;5010419;28;20457;-82
2022/04/28 08:45:07;;;;;;;7.78;1.70;;;14.70;86.70;;;;;;5017152;28;20056;-83
2022/04/28 08:47:56;;;;;;;5.57;1.40;;;14.80;86.40;;;;;;5013063;28;20020;-83
2022/04/28 08:50:43;;;;;;;6.15;1.38;;;14.90;86.30;;;;;;5023395;28;20500;-83
2022/04/28 08:53:13;;;;;;;8.10;1.70;;;15.00;86.20;;;;;;4992931;28;20034;-82
2022/04/28 08:55:43;;;;;;;5.97;1.40;;;15.20;86.10;;;;;;5028699;28;20033;-81
2022/04/28 08:58:10;;;;;;;9.93;3.13;;;15.30;85.30;;;;;;4991264;28;20029;-81
2022/04/28 09:00:45;;;;;;;12.52;2.08;;;15.40;85.00;;;;;;5025414;28;20521;-84
2022/04/28 09:03:27;;;;;;;6.70;1.33;;;15.40;83.40;;;;;;5026110;28;20033;-83
2022/04/28 09:06:29;;;;;;;8.43;1.70;;;15.30;83.00;;;;;;5025801;28;20158;-84
2022/04/28 09:09:28;;;;;;;6.65;2.33;;;15.40;83.60;;;;;;5017411;28;20033;-82
2022/04/28 09:12:09;;;;;;;5.60;1.80;;;15.40;81.80;;;;;;5009676;28;20029;-82
2022/04/28 09:15:09;;;;;;;9.32;2.60;;;15.50;82.40;;;;;;5011895;28;20025;-83
2022/04/28 09:17:41;;;;;;;4.53;1.45;;;15.60;81.90;;;;;;5009532;28;20114;-83
2022/04/28 09:20:13;;;;;;;8.25;1.98;;;15.80;81.60;;;;;;5020395;28;20044;-86
2022/04/28 09:22:43;;;;;;;17.75;9.93;;;15.90;81.00;;;;;;5005813;28;20037;-84
2022/04/28 09:25:13;;;;;;;8.68;2.90;;;15.90;79.80;;;;;;5012258;28;20052;-81
2022/04/28 09:27:41;;;;;;;8.80;1.60;;;15.90;79.40;;;;;;5002941;28;20524;-81
2022/04/28 09:30:12;;;;;;;8.48;1.73;;;16.00;79.30;;;;;;5006195;28;20033;-80
2022/04/28 09:32:52;;;;;;;6.13;1.85;;;16.00;78.40;;;;;;5009422;28;20037;-80
2022/04/28 09:35:45;;;;;;;8.23;2.20;;;16.10;78.50;;;;;;5024227;28;20033;-82
2022/04/28 09:38:33;;;;;;;7.78;1.65;;;16.20;78.50;;;;;;5010526;28;20500;-82
2022/04/28 09:43:45;;;;;;;10.73;2.45;;;16.50;77.30;;;;;;5029769;28;20034;-82
2022/04/28 09:46:22;;;;;;;10.75;2.50;;;16.60;76.40;;;;;;5019621;28;20048;-81
2022/04/28 09:48:52;;;;;;;7.57;1.95;;;16.70;76.40;;;;;;5025701;28;20629;-81
2022/04/28 09:51:34;;;;;;;7.22;2.22;;;16.80;75.60;;;;;;4991113;28;20044;-84
2022/04/28 09:54:19;;;;;;;7.35;2.13;;;16.80;74.70;;;;;;5015518;28;20044;-87
2022/04/28 09:56:54;;;;;;;5.45;2.22;;;16.80;75.00;;;;;;5024735;28;20041;-85
2022/04/28 09:59:33;;;;;;;5.70;1.25;;;16.90;75.00;;;;;;5023284;28;20029;-86
2022/04/28 10:02:01;;;;;;;5.07;1.38;;;17.00;74.90;;;;;;5010853;28;20044;-85
2022/04/28 10:04:29;;;;;;;6.97;1.90;;;17.10;74.70;;;;;;5024072;28;20026;-84
2022/04/28 10:08:09;;;;;;;;;;;;;;;;;;;;;
2022/04/28 10:11:52;;;;;;;;;;;;;;;;;;;;;
2022/04/28 10:15:09;;;;;;;7.43;1.92;;;17.30;73.50;;;;;;5000788;28;20060;-86
2022/04/28 10:18:11;;;;;;;4.05;1.50;;;17.40;72.20;;;;;;4989758;28;20037;-86
2022/04/28 10:20:50;;;;;;;5.28;2.17;;;17.50;72.10;;;;;;4955174;28;20053;-87
2022/04/28 10:32:58;;;;;;;5.70;1.83;;;18.30;67.50;;;;;;4979868;28;20043;-84
2022/04/28 10:35:35;;;;;;;18.30;8.80;;;18.30;67.30;;;;;;5009896;28;20052;-86
2022/04/28 10:38:31;;;;;;;4.72;2.17;;;18.40;67.10;;;;;;5008701;28;20392;-83
2022/04/28 10:41:04;;;;;;;5.90;2.80;;;18.60;66.30;;;;;;4998759;28;20059;-85
2022/04/28 10:43:33;;;;;;;;;;;18.70;65.40;;;;;;4992616;28;20045;-84
2022/04/28 10:46:09;;;;;;;5.63;1.98;;;18.80;65.80;;;;;;5010856;28;20275;-85
2022/04/28 10:48:43;;;;;;;5.90;2.42;;;19.00;65.70;;;;;;4994145;28;20033;-87
2022/04/28 10:51:26;;;;;;;7.65;1.77;;;19.30;64.50;;;;;;5009474;28;20032;-85
2022/04/28 10:54:16;;;;;;;5.28;1.95;;;19.70;63.80;;;;;;5007306;28;20480;-85
2022/04/28 10:56:56;;;;;;;7.78;1.98;;;20.10;62.90;;;;;;4998265;28;20034;-86
2022/04/28 10:59:36;;;;;;;7.03;1.98;;;20.40;62.30;;;;;;5019778;28;20033;-86
2022/04/28 11:02:13;;;;;;;4.75;1.73;;;20.60;61.20;;;;;;5014551;28;20465;-86
2022/04/28 11:04:42;;;;;;;8.75;2.67;;;20.80;59.60;;;;;;5022323;28;20041;-85
2022/04/28 11:07:15;;;;;;;10.10;2.08;;;20.90;59.40;;;;;;5029666;28;20037;-85
2022/04/28 11:09:44;;;;;;;7.05;1.83;;;21.10;59.50;;;;;;5013741;28;20040;-84
2022/04/28 11:12:18;;;;;;;6.18;1.83;;;21.40;58.50;;;;;;5037947;28;20029;-86
2022/04/28 11:14:48;;;;;;;7.13;1.65;;;21.70;58.40;;;;;;5011112;28;20049;-86
2022/04/28 11:17:17;;;;;;;5.22;2.00;;;22.00;57.80;;;;;;4998811;28;20492;-85
2022/04/28 11:19:46;;;;;;;5.65;1.92;;;22.30;56.50;;;;;;5014425;28;20025;-86
2022/04/28 11:22:13;;;;;;;8.40;1.92;;;22.40;55.90;;;;;;5000119;28;20033;-86
2022/04/28 11:24:43;;;;;;;5.15;1.80;;;22.40;54.60;;;;;;5015205;28;20029;-85
2022/04/28 11:27:19;;;;;;;6.15;1.48;;;22.40;54.10;;;;;;5012982;28;20021;-85
2022/04/28 11:30:40;;;;;;;7.32;1.92;;;22.70;53.40;;;;;;5022779;28;20041;-86
2022/04/28 11:33:13;;;;;;;5.38;1.42;;;22.90;53.10;;;;;;5025257;28;20044;-86
2022/04/28 11:35:40;;;;;;;4.35;1.60;;;23.30;52.40;;;;;;5049576;28;20501;-85
2022/04/28 11:38:08;;;;;;;4.03;1.70;;;23.40;50.50;;;;;;5047110;28;20033;-86
2022/04/28 11:40:37;;;;;;;5.18;2.58;;;23.40;50.50;;;;;;5014406;28;20025;-85
2022/04/28 11:43:04;;;;;;;7.00;1.60;;;23.60;50.70;;;;;;5015978;28;20037;-86
2022/04/28 11:45:33;;;;;;;6.70;1.67;;;23.80;50.40;;;;;;5014188;28;20045;-86
2022/04/28 11:48:03;;;;;;;5.50;2.25;;;24.10;49.90;;;;;;5012606;28;20046;-86
2022/04/28 11:50:34;;;;;;;10.18;2.53;;;24.40;48.50;;;;;;5028530;28;20030;-86
2022/04/28 11:53:09;;;;;;;4.55;1.50;;;24.50;49.10;;;;;;5029792;28;20041;-85
2022/04/28 11:55:40;;;;;;;6.75;1.75;;;24.70;48.20;;;;;;5028602;28;20042;-85
2022/04/28 11:58:09;;;;;;;7.00;2.28;;;25.00;48.20;;;;;;5026860;28;20033;-80
2022/04/28 12:00:41;;;;;;;3.75;1.63;;;25.30;47.80;;;;;;4976349;28;21386;-80
2022/04/28 12:03:08;;;;;;;5.68;2.13;;;25.30;46.60;;;;;;5028231;28;20547;-79
2022/04/28 12:05:35;;;;;;;20.98;15.85;;;25.40;46.40;;;;;;5024687;28;20053;-78
2022/04/28 12:08:03;;;;;;;6.90;4.35;;;25.60;46.30;;;;;;5019729;28;20484;-79
2022/04/28 12:16:22;;;;;;;6.18;3.33;;;25.90;45.10;;;;;;5019625;28;20044;-82
2022/04/28 12:21:53;;;;;;;2.92;1.30;;;26.40;43.50;;;;;;5010791;28;20508;-78
2022/04/28 12:24:19;;;;;;;6.32;1.83;;;26.50;42.90;;;;;;4996311;28;20033;-79
2022/04/28 12:26:48;;;;;;;6.65;1.83;;;26.80;42.60;;;;;;5014354;28;20025;-77
2022/04/28 12:29:16;;;;;;;4.75;1.95;;;27.10;42.40;;;;;;5013095;28;20033;-79
2022/04/28 12:31:44;;;;;;;4.82;1.63;;;27.40;41.80;;;;;;5007031;28;20405;-79
2022/04/28 12:34:14;;;;;;;7.43;2.10;;;27.50;41.40;;;;;;5025171;28;20035;-79
2022/04/28 12:36:48;;;;;;;6.43;1.40;;;27.70;41.20;;;;;;5026489;28;20037;-79
2022/04/28 12:39:22;;;;;;;3.60;1.63;;;27.90;40.70;;;;;;4996862;28;20030;-79
2022/04/28 12:41:52;;;;;;;4.15;1.48;;;28.10;39.90;;;;;;5024166;28;20038;-79
2022/04/28 12:44:19;;;;;;;5.00;1.80;;;28.00;40.10;;;;;;5011279;28;20017;-79
2022/04/28 12:46:46;;;;;;;3.42;1.50;;;27.80;40.30;;;;;;5025045;28;20389;-79
2022/04/28 12:49:16;;;;;;;3.72;1.20;;;27.90;39.80;;;;;;4994817;28;20052;-79
2022/04/28 12:51:54;;;;;;;4.10;1.50;;;28.20;39.50;;;;;;4994234;28;20389;-80
2022/04/28 12:54:32;;;;;;;5.63;2.10;;;28.60;39.10;;;;;;4996276;28;20048;-79
2022/04/28 12:57:02;;;;;;;4.47;1.30;;;28.90;39.00;;;;;;5025732;28;20021;-79
2022/04/28 12:59:36;;;;;;;4.72;1.38;;;29.10;38.40;;;;;;5018995;28;20033;-83
2022/04/28 13:02:03;;;;;;;3.50;1.05;;;28.90;38.60;;;;;;4994221;28;20021;-84
2022/04/28 13:04:35;;;;;;;6.07;1.48;;;28.80;39.20;;;;;;4995350;28;20053;-83
2022/04/28 13:07:04;;;;;;;4.35;1.83;;;28.50;38.10;;;;;;5023569;28;20041;-83
2022/04/28 13:09:30;;;;;;;5.75;1.58;;;28.50;38.50;;;;;;4990520;28;20037;-83
2022/04/28 13:12:00;;;;;;;3.72;1.98;;;28.60;38.60;;;;;;4994912;28;20052;-83
2022/04/28 13:14:27;;;;;;;7.18;2.67;;;28.80;38.50;;;;;;5010064;28;20037;-83
2022/04/28 13:16:53;;;;;;;6.85;2.08;;;28.90;38.10;;;;;;5014725;28;20021;-84
2022/04/28 13:19:20;;;;;;;4.50;1.73;;;28.70;38.30;;;;;;5005876;28;20511;-85
2022/04/28 13:21:48;;;;;;;3.58;1.70;;;28.70;38.60;;;;;;4991284;28;20036;-83
2022/04/28 13:24:19;;;;;;;5.07;1.90;;;28.90;38.50;;;;;;5013951;28;20033;-82
2022/04/28 13:26:46;;;;;;;4.78;1.48;;;29.30;38.40;;;;;;5031097;28;20483;-83
2022/04/28 13:29:12;;;;;;;4.50;2.17;;;29.70;38.00;;;;;;5009189;28;20401;-83
2022/04/28 13:31:41;;;;;;;8.27;3.05;;;29.90;37.40;;;;;;4975307;28;20033;-77
2022/04/28 13:34:09;;;;;;;9.77;2.45;;;30.00;37.50;;;;;;5025342;28;20029;-78
2022/04/28 13:36:35;;;;;;;5.03;2.00;;;30.10;37.30;;;;;;5009895;28;20061;-79
2022/04/28 13:39:06;;;;;;;6.00;2.60;;;30.20;37.40;;;;;;5027889;28;20460;-79
2022/04/28 13:41:33;;;;;;;5.57;2.42;;;30.30;37.00;;;;;;5021182;28;20029;-80
2022/04/28 13:44:01;;;;;;;6.88;2.67;;;30.10;36.90;;;;;;5024616;28;20029;-81
2022/04/28 13:46:29;;;;;;;6.32;2.33;;;30.10;36.90;;;;;;5012196;28;20034;-78
2022/04/28 13:48:59;;;;;;;4.53;1.88;;;30.50;36.80;;;;;;5023793;28;20353;-78
2022/04/28 13:51:40;;;;;;;4.88;1.60;;;30.70;36.00;;;;;;5008095;28;20064;-78
2022/04/28 13:54:09;;;;;;;5.72;1.95;;;30.90;36.10;;;;;;5039132;28;20504;-78
2022/04/28 13:56:40;;;;;;;8.07;2.47;;;30.80;35.30;;;;;;5006988;28;20081;-78
2022/04/28 13:59:11;;;;;;;7.53;2.72;;;30.70;35.00;;;;;;5023299;28;20037;-78
2022/04/28 14:01:40;;;;;;;4.97;2.22;;;30.50;35.70;;;;;;5021708;28;20376;-78
2022/04/28 14:04:11;;;;;;;7.45;2.45;;;30.70;35.50;;;;;;5016455;28;20030;-77
2022/04/28 14:06:41;;;;;;;8.10;2.90;;;30.90;36.00;;;;;;5022687;28;20409;-77
2022/04/28 14:09:08;;;;;;;6.05;3.03;;;31.20;35.20;;;;;;5023954;28;20037;-78
2022/04/28 14:11:34;;;;;;;6.53;2.65;;;31.10;35.40;;;;;;5019423;28;20033;-77
2022/04/28 14:14:02;;;;;;;8.23;2.38;;;30.70;35.20;;;;;;5037588;28;20049;-76
2022/04/28 14:16:29;;;;;;;4.13;1.50;;;30.50;35.70;;;;;;5021613;28;20041;-76
2022/04/28 14:18:55;;;;;;;7.18;2.13;;;30.30;35.40;;;;;;5007505;28;20033;-82
2022/04/28 14:21:24;;;;;;;15.52;13.00;;;30.20;36.00;;;;;;5021962;28;20381;-78